Time;durP1;ratioP1;P1;durP2;ratioP2;P2;SDS_P1;SDS_P2;PMS_P1;PMS_P2;Temp;Humidity;BMP_temperature;BMP_pressure;BME280_temperature;BME280_humidity;BME280_pressure;Samples;Min_cycle;Max_cycle;Signal;HPM_P1;HPM_P2
2023/11/04 00:00:39;;;;;;;13.10;12.30;;;10.10;99.90;;;;;;4866288;29;20239;-40
2023/11/04 00:03:07;;;;;;;13.53;12.60;;;10.10;99.90;;;;;;4847916;29;20200;-43
2023/11/04 00:05:32;;;;;;;14.10;13.10;;;10.00;99.90;;;;;;4864896;29;20655;-43
2023/11/04 00:07:58;;;;;;;12.53;11.90;;;10.00;99.90;;;;;;4866092;29;20467;-40
2023/11/04 00:10:24;;;;;;;13.23;12.63;;;9.90;99.90;;;;;;4867692;29;20184;-41
2023/11/04 00:12:50;;;;;;;14.13;13.30;;;9.90;99.90;;;;;;4869899;29;21042;-43
2023/11/04 00:15:15;;;;;;;12.93;12.10;;;9.80;99.90;;;;;;4870060;29;20188;-41
2023/11/04 00:17:41;;;;;;;12.97;12.27;;;9.90;99.90;;;;;;4868262;29;20199;-41
2023/11/04 00:20:07;;;;;;;13.30;12.57;;;9.80;99.90;;;;;;4868092;29;20528;-41
2023/11/04 00:22:34;;;;;;;13.40;12.60;;;9.80;99.90;;;;;;4869950;29;20431;-41
2023/11/04 00:25:00;;;;;;;12.90;12.27;;;9.80;99.90;;;;;;4869995;29;20962;-43
2023/11/04 00:27:26;;;;;;;13.93;12.93;;;9.80;99.90;;;;;;4869438;29;20424;-42
2023/11/04 00:29:51;;;;;;;13.43;12.57;;;9.70;99.90;;;;;;4869848;29;20196;-42
2023/11/04 00:32:17;;;;;;;13.57;12.63;;;9.70;99.90;;;;;;4869549;29;20464;-44
2023/11/04 00:34:43;;;;;;;12.70;11.93;;;9.70;99.90;;;;;;4868329;29;20188;-40
2023/11/04 00:37:10;;;;;;;12.90;12.20;;;9.70;99.90;;;;;;4869565;29;20838;-45
2023/11/04 00:39:36;;;;;;;13.37;12.60;;;9.70;99.90;;;;;;4869548;29;20718;-41
2023/11/04 00:42:02;;;;;;;13.37;12.30;;;9.70;1.00;;;;;;4868964;29;20428;-42
2023/11/04 00:44:29;;;;;;;13.37;12.47;;;9.70;1.00;;;;;;4869542;29;20484;-41
2023/11/04 00:46:54;;;;;;;12.97;12.17;;;9.60;99.90;;;;;;4867783;29;20207;-43
2023/11/04 00:49:20;;;;;;;13.00;12.30;;;9.70;99.90;;;;;;4868630;29;20456;-45
2023/11/04 00:51:46;;;;;;;13.00;12.30;;;9.70;99.90;;;;;;4869004;29;20208;-44
2023/11/04 00:54:12;;;;;;;13.00;12.30;;;9.70;99.90;;;;;;4869245;29;20428;-43
2023/11/04 00:56:38;;;;;;;13.60;12.40;;;9.70;1.00;;;;;;4869270;29;20188;-44
2023/11/04 00:59:03;;;;;;;12.30;11.70;;;9.60;99.90;;;;;;4867729;29;20226;-47
2023/11/04 01:01:29;;;;;;;13.03;12.33;;;9.60;99.90;;;;;;4868546;29;22101;-44
2023/11/04 01:03:55;;;;;;;12.47;11.83;;;9.60;99.90;;;;;;4869374;29;20275;-41
2023/11/04 01:06:21;;;;;;;13.07;12.37;;;9.60;99.90;;;;;;4851736;29;20236;-44
2023/11/04 01:08:46;;;;;;;12.90;12.20;;;9.60;99.90;;;;;;4868810;29;20499;-41
2023/11/04 01:11:12;;;;;;;13.33;12.53;;;9.70;99.90;;;;;;4852324;29;20187;-41
2023/11/04 01:13:37;;;;;;;13.60;12.70;;;9.70;99.90;;;;;;4868850;29;20211;-41
2023/11/04 01:16:04;;;;;;;13.40;12.60;;;9.70;99.90;;;;;;4867525;29;20193;-44
2023/11/04 01:18:29;;;;;;;13.43;12.53;;;9.60;99.90;;;;;;4868169;29;20184;-44
2023/11/04 01:20:55;;;;;;;13.47;12.67;;;9.60;99.90;;;;;;4869153;29;20439;-50
2023/11/04 01:23:20;;;;;;;13.27;12.40;;;9.60;99.90;;;;;;4867787;29;20196;-47
2023/11/04 01:25:46;;;;;;;12.80;12.00;;;9.60;99.90;;;;;;4868901;29;20233;-44
2023/11/04 01:28:12;;;;;;;12.53;11.93;;;9.60;99.90;;;;;;4868257;29;20198;-44
2023/11/04 01:30:37;;;;;;;13.27;12.33;;;9.70;99.90;;;;;;4868781;29;20196;-42
2023/11/04 01:33:03;;;;;;;13.80;12.50;;;9.70;99.90;;;;;;4867477;29;20571;-41
2023/11/04 01:35:29;;;;;;;12.70;11.90;;;9.70;99.90;;;;;;4868594;29;20203;-41
2023/11/04 01:37:54;;;;;;;12.77;12.07;;;9.70;99.90;;;;;;4867966;29;20440;-42
2023/11/04 01:40:21;;;;;;;12.73;12.13;;;9.70;99.90;;;;;;4867880;29;20706;-41
2023/11/04 01:42:46;;;;;;;13.10;12.30;;;9.70;99.90;;;;;;4868416;29;20219;-44
2023/11/04 01:45:12;;;;;;;14.67;13.17;;;9.70;99.90;;;;;;4866189;29;20448;-41
2023/11/04 01:47:40;;;;;;;13.07;12.20;;;9.70;99.90;;;;;;4868310;29;20196;-41
2023/11/04 01:50:07;;;;;;;12.80;11.97;;;9.60;99.90;;;;;;4866199;29;20244;-45
2023/11/04 01:52:36;;;;;;;12.50;11.80;;;9.60;99.90;;;;;;4868035;29;20475;-41
2023/11/04 01:55:02;;;;;;;13.10;12.30;;;9.60;99.90;;;;;;4867688;29;20911;-43
2023/11/04 01:57:28;;;;;;;13.20;12.40;;;9.50;99.90;;;;;;4868081;29;20429;-42
2023/11/04 01:59:54;;;;;;;13.27;12.57;;;9.50;99.90;;;;;;4867440;29;20508;-42
2023/11/04 02:02:21;;;;;;;12.90;12.20;;;9.50;99.90;;;;;;4868194;29;20220;-44
2023/11/04 02:04:47;;;;;;;13.23;12.23;;;9.50;99.90;;;;;;4867534;29;20191;-45
2023/11/04 02:07:12;;;;;;;12.40;11.70;;;9.50;99.90;;;;;;4866544;29;20440;-43
2023/11/04 02:09:38;;;;;;;13.00;12.10;;;9.50;99.90;;;;;;4866947;29;20216;-42
2023/11/04 02:12:04;;;;;;;12.80;12.10;;;9.50;99.90;;;;;;4867627;29;20212;-41
2023/11/04 02:14:32;;;;;;;13.73;12.77;;;9.50;99.90;;;;;;4866630;29;20676;-44
2023/11/04 02:16:58;;;;;;;12.97;12.37;;;9.40;99.90;;;;;;4867948;29;20484;-43
2023/11/04 02:19:24;;;;;;;12.70;12.00;;;9.30;99.90;;;;;;4849605;29;20448;-44
2023/11/04 02:21:50;;;;;;;12.97;12.00;;;9.40;99.90;;;;;;4867890;29;20194;-44
2023/11/04 02:24:15;;;;;;;13.07;12.27;;;9.40;99.90;;;;;;4867635;29;20429;-45
2023/11/04 02:26:41;;;;;;;12.47;11.87;;;9.40;99.90;;;;;;4867578;29;20469;-44
2023/11/04 02:29:07;;;;;;;12.70;12.10;;;9.30;99.90;;;;;;4867475;29;20187;-42
2023/11/04 02:31:33;;;;;;;12.63;11.87;;;9.30;99.90;;;;;;4867467;29;20796;-46
2023/11/04 02:33:59;;;;;;;12.10;11.60;;;9.30;99.90;;;;;;4865480;29;20180;-43
2023/11/04 02:36:25;;;;;;;12.83;12.13;;;9.30;99.90;;;;;;4867224;29;20432;-42
2023/11/04 02:38:51;;;;;;;12.73;11.87;;;9.20;99.90;;;;;;4866618;29;21010;-42
2023/11/04 02:41:18;;;;;;;12.27;11.57;;;9.20;99.90;;;;;;4867006;29;20183;-45
2023/11/04 02:43:44;;;;;;;13.37;12.50;;;9.20;99.90;;;;;;4867406;29;20417;-45
2023/11/04 02:46:09;;;;;;;12.70;12.00;;;9.10;99.90;;;;;;4850408;29;20447;-43
2023/11/04 02:48:35;;;;;;;12.17;11.57;;;9.10;99.90;;;;;;4866835;29;20303;-42
2023/11/04 02:51:00;;;;;;;12.60;11.90;;;9.10;99.90;;;;;;4850536;29;20199;-43
2023/11/04 02:53:26;;;;;;;12.90;12.20;;;9.20;99.90;;;;;;4865782;29;20211;-42
2023/11/04 02:55:52;;;;;;;13.20;12.20;;;9.20;99.90;;;;;;4866579;29;20187;-43
2023/11/04 02:58:17;;;;;;;12.67;12.07;;;9.10;99.90;;;;;;4866495;29;20283;-41
2023/11/04 03:00:43;;;;;;;12.57;11.97;;;9.10;99.90;;;;;;4866077;29;20251;-44
2023/11/04 03:03:09;;;;;;;12.40;11.80;;;9.10;99.90;;;;;;4866503;29;20200;-42
2023/11/04 03:05:34;;;;;;;13.00;12.13;;;9.10;99.90;;;;;;4867469;29;20192;-40
2023/11/04 03:08:00;;;;;;;12.60;12.00;;;9.10;99.90;;;;;;4867090;29;20433;-49
2023/11/04 03:10:26;;;;;;;12.23;11.63;;;9.10;99.90;;;;;;4866883;29;20199;-42
2023/11/04 03:12:52;;;;;;;12.50;11.73;;;9.10;99.90;;;;;;4866348;29;20211;-44
2023/11/04 03:15:18;;;;;;;12.30;11.60;;;9.10;99.90;;;;;;4866058;29;20274;-44
2023/11/04 03:17:43;;;;;;;12.93;12.23;;;9.10;99.90;;;;;;4866913;29;20439;-47
2023/11/04 03:20:09;;;;;;;12.83;12.00;;;9.00;99.90;;;;;;4865646;29;20188;-41
2023/11/04 03:22:35;;;;;;;12.97;12.17;;;9.10;99.90;;;;;;4866145;29;20271;-42
2023/11/04 03:25:01;;;;;;;12.30;11.70;;;9.10;99.90;;;;;;4865359;29;20441;-47
2023/11/04 03:27:26;;;;;;;11.90;11.40;;;9.00;99.90;;;;;;4866371;29;20375;-43
2023/11/04 03:29:52;;;;;;;12.00;11.40;;;9.10;99.90;;;;;;4866663;29;20455;-42
2023/11/04 03:32:19;;;;;;;13.13;11.93;;;9.10;99.90;;;;;;4867061;29;20219;-43
2023/11/04 03:34:45;;;;;;;12.73;11.83;;;9.10;99.90;;;;;;4865929;29;20435;-43
2023/11/04 03:37:11;;;;;;;12.73;11.93;;;9.10;99.90;;;;;;4866838;29;21343;-39
2023/11/04 03:39:37;;;;;;;12.03;11.43;;;9.10;99.90;;;;;;4866189;29;20204;-42
2023/11/04 03:42:03;;;;;;;12.93;12.23;;;9.10;99.90;;;;;;4866599;29;20793;-42
2023/11/04 03:44:28;;;;;;;12.70;11.90;;;9.00;99.90;;;;;;4866458;29;20196;-42
2023/11/04 03:46:56;;;;;;;12.10;11.50;;;9.00;99.90;;;;;;4869789;29;20443;-42
2023/11/04 03:49:22;;;;;;;13.03;12.23;;;9.00;99.90;;;;;;4869670;29;20287;-41
2023/11/04 03:51:48;;;;;;;12.30;11.43;;;9.00;99.90;;;;;;4869626;29;20475;-43
2023/11/04 03:54:13;;;;;;;12.40;11.80;;;8.90;99.90;;;;;;4870216;29;20589;-46
2023/11/04 03:56:39;;;;;;;12.80;12.00;;;8.90;99.90;;;;;;4870024;29;20319;-44
2023/11/04 03:59:05;;;;;;;12.10;11.50;;;8.90;99.90;;;;;;4869750;29;20750;-42
2023/11/04 04:01:38;;;;;;;12.30;11.63;;;8.80;99.90;;;;;;4868481;29;20188;-41
2023/11/04 04:04:04;;;;;;;12.40;11.80;;;8.80;99.90;;;;;;4870065;29;20934;-44
2023/11/04 04:06:29;;;;;;;12.83;11.80;;;8.70;99.90;;;;;;4869711;29;20440;-42
2023/11/04 04:08:55;;;;;;;13.00;12.10;;;8.70;1.00;;;;;;4853407;29;20297;-45
2023/11/04 04:11:22;;;;;;;12.43;11.83;;;8.70;1.00;;;;;;4868972;29;20271;-41
2023/11/04 04:13:48;;;;;;;12.10;11.50;;;8.60;1.00;;;;;;4869280;29;20188;-45
2023/11/04 04:16:14;;;;;;;12.60;11.90;;;8.50;1.00;;;;;;4869948;29;20444;-44
2023/11/04 04:18:39;;;;;;;12.40;11.70;;;8.50;1.00;;;;;;4851718;29;20207;-44
2023/11/04 04:21:06;;;;;;;12.20;11.60;;;8.40;99.90;;;;;;4869775;29;20203;-44
2023/11/04 04:23:32;;;;;;;12.53;11.83;;;8.40;99.90;;;;;;4870155;29;20198;-42
2023/11/04 04:25:57;;;;;;;12.33;11.50;;;8.30;99.90;;;;;;4869913;29;20444;-39
2023/11/04 04:28:23;;;;;;;12.20;11.60;;;8.30;1.00;;;;;;4869623;29;20211;-48
2023/11/04 04:30:49;;;;;;;11.63;10.90;;;8.30;28.30;;;;;;4869241;29;20195;-45
2023/11/04 04:33:16;;;;;;;12.20;11.60;;;8.30;1.00;;;;;;4852524;29;20263;-45
2023/11/04 04:35:42;;;;;;;12.10;11.50;;;8.20;99.90;;;;;;4869473;29;20432;-43
2023/11/04 04:38:08;;;;;;;11.77;11.23;;;8.20;99.90;;;;;;4868873;29;20871;-46
2023/11/04 04:40:33;;;;;;;12.60;11.90;;;8.10;1.00;;;;;;4869567;29;20473;-43
2023/11/04 04:42:59;;;;;;;11.80;11.10;;;8.00;99.90;;;;;;4868783;29;20199;-43
2023/11/04 04:45:25;;;;;;;13.13;12.23;;;8.00;99.90;;;;;;4869245;29;21091;-44
2023/11/04 04:47:50;;;;;;;11.70;11.00;;;8.00;91.70;;;;;;4851657;29;20218;-42
2023/11/04 04:50:16;;;;;;;12.37;11.57;;;7.90;99.90;;;;;;4869249;29;20551;-42
2023/11/04 04:52:42;;;;;;;11.40;10.73;;;7.90;20.30;;;;;;4869406;29;20219;-45
2023/11/04 04:55:07;;;;;;;12.37;11.70;;;7.80;99.90;;;;;;4869334;29;20206;-44
2023/11/04 04:57:35;;;;;;;12.27;11.57;;;7.80;1.00;;;;;;4869096;29;20275;-45
2023/11/04 05:00:01;;;;;;;11.70;11.10;;;7.70;1.00;;;;;;4867929;29;20235;-40
2023/11/04 05:02:27;;;;;;;12.27;11.53;;;7.70;1.00;;;;;;4867985;29;20479;-45
2023/11/04 05:04:53;;;;;;;12.60;11.80;;;7.70;1.00;;;;;;4868750;29;20436;-45
2023/11/04 05:07:18;;;;;;;12.13;11.53;;;7.60;99.90;;;;;;4869190;29;20215;-44
2023/11/04 05:09:44;;;;;;;12.30;11.60;;;7.60;1.00;;;;;;4869238;29;20616;-44
2023/11/04 05:12:09;;;;;;;12.10;11.50;;;7.60;99.90;;;;;;4868719;29;20208;-42
2023/11/04 05:14:35;;;;;;;12.30;11.70;;;7.60;99.90;;;;;;4868322;29;20196;-45
2023/11/04 05:17:01;;;;;;;11.97;11.37;;;7.60;99.90;;;;;;4869069;29;20219;-45
2023/11/04 05:19:26;;;;;;;12.23;11.63;;;7.60;1.00;;;;;;4852062;29;20234;-40
2023/11/04 05:21:52;;;;;;;12.80;11.90;;;7.50;1.00;;;;;;4869117;29;20195;-43
2023/11/04 05:24:17;;;;;;;12.07;11.37;;;7.50;1.00;;;;;;4869022;29;20248;-44
2023/11/04 05:26:43;;;;;;;12.30;11.70;;;7.50;99.90;;;;;;4867778;29;20235;-42
2023/11/04 05:29:09;;;;;;;12.30;11.60;;;7.50;99.90;;;;;;4868769;29;20207;-43
2023/11/04 05:31:35;;;;;;;12.33;11.63;;;7.60;1.00;;;;;;4868052;29;20662;-41
2023/11/04 05:34:01;;;;;;;12.87;12.07;;;7.60;1.00;;;;;;4869200;29;20196;-43
2023/11/04 05:36:27;;;;;;;11.90;11.40;;;7.50;1.00;;;;;;4867888;29;20493;-46
2023/11/04 05:38:53;;;;;;;11.50;11.00;;;7.50;1.00;;;;;;4868833;29;20849;-45
2023/11/04 05:41:18;;;;;;;12.13;11.63;;;7.40;99.90;;;;;;4867442;29;20436;-42
2023/11/04 05:43:45;;;;;;;11.90;11.30;;;7.40;1.00;;;;;;4868559;29;20232;-43
2023/11/04 05:46:10;;;;;;;12.00;11.40;;;7.40;1.00;;;;;;4867304;29;20261;-40
2023/11/04 05:48:37;;;;;;;12.33;11.47;;;7.30;1.00;;;;;;4868334;29;20464;-44
2023/11/04 05:51:04;;;;;;;12.23;11.53;;;7.40;1.00;;;;;;4850268;29;20299;-41
2023/11/04 05:53:29;;;;;;;12.90;12.20;;;7.30;1.00;;;;;;4868626;29;20976;-43
2023/11/04 05:55:57;;;;;;;12.80;12.20;;;7.30;1.00;;;;;;4867864;29;20484;-41
2023/11/04 05:58:23;;;;;;;13.10;12.20;;;7.30;1.00;;;;;;4867413;29;21694;-41
2023/11/04 06:00:48;;;;;;;12.90;12.10;;;7.30;20.20;;;;;;4864836;29;20492;-42
2023/11/04 06:03:14;;;;;;;11.90;11.30;;;7.30;19.00;;;;;;4849556;29;20219;-42
2023/11/04 06:05:40;;;;;;;13.60;12.90;;;7.20;99.90;;;;;;4867447;29;20194;-42
2023/11/04 06:08:06;;;;;;;13.90;13.07;;;7.10;99.90;;;;;;4850562;29;20672;-41
2023/11/04 06:10:32;;;;;;;14.13;12.80;;;7.10;99.90;;;;;;4867290;29;20432;-42
2023/11/04 06:12:57;;;;;;;13.37;12.60;;;7.10;99.90;;;;;;4868415;29;20219;-41
2023/11/04 06:15:24;;;;;;;13.97;13.07;;;7.10;99.90;;;;;;4866533;29;20203;-41
2023/11/04 06:17:49;;;;;;;15.10;14.03;;;7.00;1.00;;;;;;4868122;29;21012;-44
2023/11/04 06:20:15;;;;;;;14.57;13.40;;;7.00;1.00;;;;;;4849730;29;20448;-45
2023/11/04 06:22:41;;;;;;;14.50;13.40;;;6.90;1.00;;;;;;4867936;29;20187;-41
2023/11/04 06:25:07;;;;;;;16.20;14.90;;;6.90;1.00;;;;;;4867664;29;20538;-45
2023/11/04 06:27:32;;;;;;;16.33;15.03;;;6.90;1.00;;;;;;4867682;29;20246;-41
2023/11/04 06:29:58;;;;;;;15.87;14.57;;;7.00;1.00;;;;;;4866921;29;20333;-44
2023/11/04 06:32:23;;;;;;;15.43;14.33;;;6.90;1.00;;;;;;4866074;29;20215;-42
2023/11/04 06:34:49;;;;;;;16.57;15.23;;;7.00;1.00;;;;;;4866916;29;20555;-42
2023/11/04 06:37:14;;;;;;;16.50;15.20;;;6.90;1.00;;;;;;4867111;29;20316;-42
2023/11/04 06:39:40;;;;;;;16.90;15.50;;;7.00;1.00;;;;;;4867686;29;20184;-41
2023/11/04 06:42:06;;;;;;;17.93;16.40;;;7.00;1.00;;;;;;4867791;29;20223;-44
2023/11/04 06:44:35;;;;;;;17.20;15.80;;;7.10;1.00;;;;;;4867472;29;20195;-41
2023/11/04 06:47:00;;;;;;;18.37;16.77;;;7.10;1.00;;;;;;4865197;29;20183;-42
2023/11/04 06:49:27;;;;;;;17.77;16.37;;;7.10;1.00;;;;;;4867606;29;20436;-43
2023/11/04 06:51:53;;;;;;;17.43;16.03;;;7.20;1.00;;;;;;4865794;29;20492;-43
2023/11/04 06:54:18;;;;;;;18.60;17.07;;;7.20;1.00;;;;;;4867765;29;20416;-42
2023/11/04 06:56:44;;;;;;;19.27;16.07;;;7.30;1.00;;;;;;4867438;29;20184;-43
2023/11/04 06:59:09;;;;;;;17.47;16.17;;;7.30;1.00;;;;;;4850066;29;20231;-44
2023/11/04 07:01:35;;;;;;;17.37;15.97;;;7.40;1.00;;;;;;4865963;29;20930;-41
2023/11/04 07:04:00;;;;;;;17.60;16.20;;;7.40;1.00;;;;;;4867584;29;20184;-40
2023/11/04 07:06:26;;;;;;;16.33;15.03;;;7.40;1.00;;;;;;4866149;29;20262;-41
2023/11/04 07:08:54;;;;;;;17.03;15.57;;;7.40;1.00;;;;;;4866384;29;20192;-42
2023/11/04 07:11:20;;;;;;;16.80;15.50;;;7.50;1.00;;;;;;4866521;29;20287;-41
2023/11/04 07:13:46;;;;;;;16.57;15.07;;;7.50;99.90;;;;;;4866715;29;20480;-41
2023/11/04 07:16:13;;;;;;;16.20;14.73;;;7.50;99.90;;;;;;4864801;29;20459;-43
2023/11/04 07:18:40;;;;;;;15.87;14.77;;;7.60;99.90;;;;;;4867037;29;20444;-46
2023/11/04 07:21:06;;;;;;;16.63;15.20;;;7.60;99.90;;;;;;4865202;29;20444;-47
2023/11/04 07:23:31;;;;;;;16.33;15.00;;;7.60;99.90;;;;;;4863945;29;20459;-48
2023/11/04 07:25:57;;;;;;;16.00;14.90;;;7.70;99.90;;;;;;4866921;29;20604;-48
2023/11/04 07:28:23;;;;;;;15.27;14.17;;;7.70;42.80;;;;;;4866433;29;20635;-50
2023/11/04 07:30:52;;;;;;;16.30;14.63;;;7.80;37.80;;;;;;4867192;29;20199;-47
2023/11/04 07:33:19;;;;;;;15.00;13.90;;;7.80;1.00;;;;;;4866357;29;20230;-48
2023/11/04 07:35:45;;;;;;;14.13;13.10;;;7.90;1.00;;;;;;4864742;29;20503;-46
2023/11/04 07:38:11;;;;;;;15.57;14.47;;;7.90;1.00;;;;;;4865116;29;20571;-47
2023/11/04 07:40:38;;;;;;;15.60;14.30;;;8.00;1.00;;;;;;4865608;29;20961;-49
2023/11/04 07:43:05;;;;;;;15.43;14.30;;;8.10;1.00;;;;;;4866561;29;20425;-50
2023/11/04 07:45:30;;;;;;;15.60;14.50;;;8.30;99.90;;;;;;4864792;29;20449;-46
2023/11/04 07:47:56;;;;;;;16.43;15.23;;;8.40;1.00;;;;;;4866228;29;20460;-47
2023/11/04 07:50:21;;;;;;;15.57;14.43;;;8.50;99.90;;;;;;4863502;29;20198;-47
2023/11/04 07:52:47;;;;;;;15.97;14.70;;;8.70;1.00;;;;;;4863306;29;21392;-46
2023/11/04 07:55:13;;;;;;;14.10;13.10;;;8.90;1.00;;;;;;4865090;29;20180;-47
2023/11/04 07:57:39;;;;;;;14.40;13.30;;;9.10;1.00;;;;;;4865696;29;20212;-48
2023/11/04 08:00:07;;;;;;;14.03;13.03;;;9.40;1.00;;;;;;4865486;29;20243;-49
2023/11/04 08:02:36;;;;;;;13.93;12.93;;;9.80;1.00;;;;;;4865457;29;20851;-49
2023/11/04 08:05:02;;;;;;;14.97;13.70;;;10.20;99.90;;;;;;4848749;29;20453;-50
2023/11/04 08:08:16;;;;;;;14.80;13.77;;;10.70;1.00;;;;;;4866052;29;20803;-49
2023/11/04 08:11:27;;;;;;;14.10;13.20;;;11.20;99.90;;;;;;4847389;29;20562;-47
2023/11/04 08:13:53;;;;;;;13.70;12.70;;;11.70;1.00;;;;;;4863855;29;20506;-50
2023/11/04 08:16:18;;;;;;;14.70;13.60;;;12.00;1.00;;;;;;4865428;29;20437;-47
2023/11/04 08:18:45;;;;;;;13.77;12.87;;;12.40;1.00;;;;;;4866168;29;20255;-49
2023/11/04 08:21:15;;;;;;;14.00;13.10;;;12.70;1.00;;;;;;4864245;29;20180;-51
2023/11/04 08:23:40;;;;;;;14.03;13.13;;;12.80;1.00;;;;;;4864010;29;20836;-45
2023/11/04 08:26:06;;;;;;;13.90;12.43;;;13.10;1.00;;;;;;4864506;29;20424;-51
2023/11/04 08:28:32;;;;;;;13.47;12.47;;;13.40;1.00;;;;;;4863149;29;20379;-45
2023/11/04 08:30:58;;;;;;;13.93;12.97;;;13.70;1.00;;;;;;4847493;29;20184;-46
2023/11/04 08:33:23;;;;;;;13.73;12.93;;;14.10;1.00;;;;;;4866438;29;20498;-47
2023/11/04 08:35:49;;;;;;;13.37;12.60;;;14.30;1.00;;;;;;4866792;29;20202;-51
2023/11/04 08:38:16;;;;;;;13.67;12.97;;;14.60;1.00;;;;;;4868368;29;20518;-44
2023/11/04 08:40:42;;;;;;;13.40;12.57;;;15.00;1.00;;;;;;4867499;29;20184;-46
2023/11/04 08:43:07;;;;;;;12.90;12.10;;;15.30;99.90;;;;;;4868334;29;20453;-47
2023/11/04 08:45:33;;;;;;;12.80;12.10;;;15.50;99.90;;;;;;4851954;29;20196;-54
2023/11/04 08:47:59;;;;;;;13.70;12.80;;;16.00;99.90;;;;;;4868249;29;20537;-49
2023/11/04 08:50:27;;;;;;;12.40;11.60;;;16.20;99.90;;;;;;4868884;29;20192;-45
2023/11/04 08:52:52;;;;;;;12.87;12.17;;;16.20;99.90;;;;;;4867220;29;20235;-51
2023/11/04 08:55:18;;;;;;;13.43;12.60;;;16.40;99.90;;;;;;4868802;29;21345;-50
2023/11/04 08:57:44;;;;;;;13.30;12.60;;;16.70;99.90;;;;;;4868142;29;20678;-49
2023/11/04 09:00:11;;;;;;;13.23;12.53;;;16.80;99.90;;;;;;4867982;29;20464;-48
2023/11/04 09:02:37;;;;;;;12.90;12.30;;;16.80;99.90;;;;;;4868845;29;20175;-48
2023/11/04 09:05:03;;;;;;;12.17;11.50;;;16.60;99.90;;;;;;4868388;29;20435;-48
2023/11/04 09:07:29;;;;;;;12.87;12.17;;;17.10;99.90;;;;;;4867834;29;20532;-51
2023/11/04 09:09:55;;;;;;;12.87;12.27;;;17.10;99.90;;;;;;4868978;29;20522;-45
2023/11/04 09:12:21;;;;;;;12.00;11.33;;;16.70;99.90;;;;;;4867665;29;20516;-46
2023/11/04 09:14:47;;;;;;;12.40;11.60;;;16.60;99.90;;;;;;4868404;29;20243;-50
2023/11/04 09:17:14;;;;;;;13.03;12.33;;;16.90;99.90;;;;;;4867984;29;20429;-47
2023/11/04 09:19:39;;;;;;;12.63;11.93;;;16.30;99.90;;;;;;4868037;29;20207;-50
2023/11/04 09:22:05;;;;;;;12.47;11.83;;;16.90;99.90;;;;;;4868026;29;20862;-47
2023/11/04 09:24:31;;;;;;;11.57;10.97;;;16.70;99.90;;;;;;4867818;29;20283;-47
2023/11/04 09:26:57;;;;;;;12.80;12.10;;;17.00;99.90;;;;;;4867498;29;20248;-46
2023/11/04 09:29:24;;;;;;;12.67;11.97;;;16.90;99.90;;;;;;4867415;29;20440;-47
2023/11/04 09:31:50;;;;;;;12.37;11.67;;;17.00;99.90;;;;;;4866373;29;20279;-45
2023/11/04 09:34:16;;;;;;;12.63;11.93;;;17.40;99.90;;;;;;4867575;29;20432;-44
2023/11/04 09:36:41;;;;;;;12.27;11.67;;;17.50;99.90;;;;;;4866518;29;20196;-47
2023/11/04 09:39:07;;;;;;;11.33;10.83;;;17.70;99.90;;;;;;4867370;29;20199;-52
2023/11/04 09:41:32;;;;;;;12.10;11.20;;;18.20;99.90;;;;;;4866954;29;20502;-49
2023/11/04 09:43:58;;;;;;;11.70;11.03;;;17.80;99.90;;;;;;4849992;29;20207;-49
2023/11/04 09:46:24;;;;;;;12.30;11.70;;;17.80;99.90;;;;;;4850086;29;20199;-49
2023/11/04 09:48:51;;;;;;;12.40;11.70;;;17.40;99.90;;;;;;4866805;29;20195;-47
2023/11/04 09:51:21;;;;;;;12.60;11.93;;;16.20;99.90;;;;;;4866751;29;20448;-48
2023/11/04 09:53:53;;;;;;;11.83;11.33;;;16.30;99.90;;;;;;4866426;29;20476;-48
2023/11/04 09:56:19;;;;;;;11.97;11.37;;;16.70;99.90;;;;;;4866060;29;20912;-46
2023/11/04 09:58:45;;;;;;;12.40;11.80;;;16.20;99.90;;;;;;4864804;29;20456;-45
2023/11/04 10:01:11;;;;;;;12.07;11.30;;;15.50;99.90;;;;;;4867647;29;20451;-45
2023/11/04 10:03:37;;;;;;;12.00;11.30;;;15.40;99.90;;;;;;4850465;29;20195;-48
2023/11/04 10:06:03;;;;;;;12.10;11.50;;;15.20;99.90;;;;;;4850312;29;21010;-48
2023/11/04 10:08:28;;;;;;;12.53;11.93;;;14.80;99.90;;;;;;4866493;29;20200;-48
2023/11/04 10:10:55;;;;;;;12.60;11.90;;;14.40;99.90;;;;;;4866911;29;20614;-47
2023/11/04 10:13:21;;;;;;;11.67;11.07;;;13.90;99.90;;;;;;4866947;29;20223;-43
2023/11/04 10:15:46;;;;;;;12.37;11.77;;;13.70;99.90;;;;;;4866806;29;20915;-48
2023/11/04 10:18:14;;;;;;;12.30;11.70;;;13.60;99.90;;;;;;4866797;29;20199;-48
2023/11/04 10:20:40;;;;;;;13.30;12.57;;;13.80;99.90;;;;;;4865522;29;20207;-49
2023/11/04 10:23:06;;;;;;;12.37;11.77;;;14.30;99.90;;;;;;4864661;29;20912;-47
2023/11/04 10:25:33;;;;;;;11.47;10.97;;;14.90;99.90;;;;;;4865855;29;20458;-48
2023/11/04 10:27:58;;;;;;;12.90;12.30;;;15.70;99.90;;;;;;4865880;29;20282;-48
2023/11/04 10:30:24;;;;;;;13.40;12.50;;;16.50;99.90;;;;;;4865560;29;20504;-44
2023/11/04 10:32:52;;;;;;;13.00;12.20;;;16.30;99.90;;;;;;4865172;29;20667;-45
2023/11/04 10:35:19;;;;;;;12.70;12.00;;;16.20;99.90;;;;;;4866851;29;20192;-44
2023/11/04 10:37:50;;;;;;;13.20;12.50;;;16.50;99.90;;;;;;4865645;29;20447;-47
2023/11/04 10:40:16;;;;;;;12.00;11.40;;;16.00;99.90;;;;;;4865812;29;20455;-48
2023/11/04 10:42:49;;;;;;;12.70;12.00;;;17.00;99.90;;;;;;4866990;29;20472;-47
2023/11/04 10:45:28;;;;;;;13.13;12.40;;;17.00;99.90;;;;;;4867268;29;20456;-46
2023/11/04 10:48:03;;;;;;;13.60;12.70;;;17.20;99.90;;;;;;4865883;29;20463;-46
2023/11/04 10:50:33;;;;;;;12.40;11.70;;;17.70;99.90;;;;;;4866767;29;20444;-48
2023/11/04 10:53:38;;;;;;;13.00;12.30;;;17.90;99.90;;;;;;4865080;29;20472;-46
2023/11/04 10:56:11;;;;;;;13.00;12.23;;;17.80;99.90;;;;;;4849452;29;20444;-51
2023/11/04 10:59:13;;;;;;;12.50;11.90;;;18.60;99.90;;;;;;4855558;29;20488;-51
2023/11/04 11:01:41;;;;;;;12.33;11.73;;;18.40;99.90;;;;;;4852711;29;20538;-48
2023/11/04 11:04:09;;;;;;;11.30;10.80;;;18.60;99.90;;;;;;4866068;29;20428;-49
2023/11/04 11:06:35;;;;;;;11.50;11.00;;;18.90;99.90;;;;;;4848759;29;20458;-51
2023/11/04 11:09:04;;;;;;;13.00;12.30;;;19.40;99.90;;;;;;4866135;29;20940;-48
2023/11/04 11:11:35;;;;;;;12.27;11.63;;;18.70;99.90;;;;;;4865507;29;20436;-45
2023/11/04 11:14:01;;;;;;;12.07;11.33;;;19.10;99.90;;;;;;4865369;29;20472;-53
2023/11/04 11:16:29;;;;;;;12.73;12.10;;;19.20;99.90;;;;;;4866280;29;20523;-51
2023/11/04 11:19:09;;;;;;;11.90;11.30;;;18.80;99.90;;;;;;4865650;29;20433;-47
2023/11/04 11:21:51;;;;;;;12.30;11.70;;;18.80;99.90;;;;;;4866656;29;20420;-49
2023/11/04 11:24:21;;;;;;;13.03;12.33;;;18.70;99.90;;;;;;4861328;29;20504;-48
2023/11/04 11:26:49;;;;;;;13.10;12.50;;;17.60;99.90;;;;;;4864913;29;20446;-44
2023/11/04 11:29:23;;;;;;;12.77;12.13;;;17.30;99.90;;;;;;4866105;29;20526;-47
2023/11/04 11:31:53;;;;;;;13.37;12.57;;;16.30;99.90;;;;;;4862540;29;20440;-49
2023/11/04 11:34:19;;;;;;;12.40;11.80;;;15.40;99.90;;;;;;4866210;29;21155;-48
2023/11/04 11:36:49;;;;;;;13.23;12.60;;;14.70;99.90;;;;;;4866323;29;20431;-46
2023/11/04 11:39:15;;;;;;;13.00;12.30;;;14.20;99.90;;;;;;4863945;29;20199;-48
2023/11/04 11:41:43;;;;;;;12.80;12.20;;;13.80;99.90;;;;;;4865849;29;20937;-47
2023/11/04 11:44:11;;;;;;;12.93;12.23;;;13.80;99.90;;;;;;4848115;29;21290;-50
2023/11/04 11:46:36;;;;;;;12.17;11.47;;;13.90;99.90;;;;;;4862211;29;20855;-47
2023/11/04 11:49:05;;;;;;;12.60;11.90;;;13.80;99.90;;;;;;4865606;29;20444;-48
2023/11/04 11:51:30;;;;;;;12.40;11.80;;;13.90;99.90;;;;;;4863923;29;20187;-48
2023/11/04 11:53:56;;;;;;;12.23;11.53;;;13.90;99.90;;;;;;4864491;29;20487;-52
2023/11/04 11:56:22;;;;;;;11.87;11.27;;;13.90;99.90;;;;;;4865553;29;20188;-50
2023/11/04 11:58:48;;;;;;;12.10;11.50;;;14.30;99.90;;;;;;4863857;29;20275;-47
2023/11/04 12:01:15;;;;;;;11.63;11.03;;;14.50;99.90;;;;;;4863295;29;20188;-50
2023/11/04 12:03:41;;;;;;;10.80;10.30;;;14.70;99.90;;;;;;4863425;29;20440;-52
2023/11/04 12:06:11;;;;;;;11.60;11.03;;;15.10;99.90;;;;;;4849372;29;20918;-49
2023/11/04 12:08:37;;;;;;;11.57;11.07;;;15.70;99.90;;;;;;4867433;29;20530;-48
2023/11/04 12:11:03;;;;;;;11.97;11.37;;;16.30;99.90;;;;;;4865192;29;20512;-50
2023/11/04 12:13:28;;;;;;;10.90;10.40;;;16.80;99.90;;;;;;4868921;29;20468;-46
2023/11/04 12:15:54;;;;;;;11.33;10.83;;;16.80;99.90;;;;;;4865415;29;20184;-46
2023/11/04 12:18:20;;;;;;;10.70;10.10;;;16.70;99.90;;;;;;4851677;29;20210;-54
2023/11/04 12:20:46;;;;;;;11.20;10.70;;;17.00;99.90;;;;;;4850308;29;20559;-49
2023/11/04 12:23:14;;;;;;;10.90;10.40;;;16.50;99.90;;;;;;4868382;29;20625;-52
2023/11/04 12:25:41;;;;;;;11.30;10.80;;;16.70;99.90;;;;;;4867314;29;21219;-51
2023/11/04 12:28:11;;;;;;;11.40;10.80;;;16.90;99.90;;;;;;4864859;29;20508;-47
2023/11/04 12:30:36;;;;;;;11.33;10.73;;;17.30;99.90;;;;;;4867701;29;20448;-44
2023/11/04 12:33:03;;;;;;;11.03;10.53;;;17.60;99.90;;;;;;4867916;29;21539;-47